sensor_id;sensor_type;location;lat;lon;timestamp;temperature;humidity
52979;DHT22;63430;53.186;6.598;2023-02-01T00:00:34;6.40;99.90
52979;DHT22;63430;53.186;6.598;2023-02-01T00:02:37;6.40;99.90
52979;DHT22;63430;53.186;6.598;2023-02-01T00:04:43;6.40;99.90
52979;DHT22;63430;53.186;6.598;2023-02-01T00:06:45;6.40;99.90
52979;DHT22;63430;53.186;6.598;2023-02-01T00:08:48;6.40;99.90
52979;DHT22;63430;53.186;6.598;2023-02-01T00:10:58;7.00;99.90
52979;DHT22;63430;53.186;6.598;2023-02-01T00:13:00;6.50;99.90
52979;DHT22;63430;53.186;6.598;2023-02-01T00:15:03;6.50;99.90
52979;DHT22;63430;53.186;6.598;2023-02-01T00:17:09;6.50;99.90
52979;DHT22;63430;53.186;6.598;2023-02-01T00:19:14;6.40;99.90
52979;DHT22;63430;53.186;6.598;2023-02-01T00:21:18;6.40;99.90
52979;DHT22;63430;53.186;6.598;2023-02-01T00:23:21;6.50;99.90
52979;DHT22;63430;53.186;6.598;2023-02-01T00:25:23;6.50;99.90
52979;DHT22;63430;53.186;6.598;2023-02-01T00:27:26;6.40;99.90
52979;DHT22;63430;53.186;6.598;2023-02-01T00:29:28;6.40;99.90
52979;DHT22;63430;53.186;6.598;2023-02-01T00:31:31;6.40;99.90
52979;DHT22;63430;53.186;6.598;2023-02-01T00:33:36;6.40;99.90
52979;DHT22;63430;53.186;6.598;2023-02-01T00:35:44;6.50;99.90
52979;DHT22;63430;53.186;6.598;2023-02-01T00:37:47;6.50;99.90
52979;DHT22;63430;53.186;6.598;2023-02-01T00:39:49;6.50;99.90
52979;DHT22;63430;53.186;6.598;2023-02-01T00:41:52;6.50;99.90
52979;DHT22;63430;53.186;6.598;2023-02-01T00:43:55;6.50;99.90
52979;DHT22;63430;53.186;6.598;2023-02-01T00:45:58;6.50;99.90
52979;DHT22;63430;53.186;6.598;2023-02-01T00:48:01;6.50;99.90
52979;DHT22;63430;53.186;6.598;2023-02-01T00:50:07;6.50;99.90
52979;DHT22;63430;53.186;6.598;2023-02-01T00:52:09;6.40;99.90
52979;DHT22;63430;53.186;6.598;2023-02-01T00:54:12;6.40;99.90
52979;DHT22;63430;53.186;6.598;2023-02-01T00:56:14;6.40;99.90
52979;DHT22;63430;53.186;6.598;2023-02-01T00:58:17;6.50;99.90
52979;DHT22;63430;53.186;6.598;2023-02-01T01:00:20;6.50;99.90
52979;DHT22;63430;53.186;6.598;2023-02-01T01:02:26;6.50;99.90
52979;DHT22;63430;53.186;6.598;2023-02-01T01:04:29;6.50;99.90
52979;DHT22;63430;53.186;6.598;2023-02-01T01:06:34;6.50;99.90
52979;DHT22;63430;53.186;6.598;2023-02-01T01:08:39;6.60;99.90
52979;DHT22;63430;53.186;6.598;2023-02-01T01:10:55;6.60;99.90
52979;DHT22;63430;53.186;6.598;2023-02-01T01:12:57;6.60;99.90
52979;DHT22;63430;53.186;6.598;2023-02-01T01:15:00;6.60;99.90
52979;DHT22;63430;53.186;6.598;2023-02-01T01:17:03;6.60;99.90
52979;DHT22;63430;53.186;6.598;2023-02-01T01:19:08;6.60;99.90
52979;DHT22;63430;53.186;6.598;2023-02-01T01:21:12;6.70;99.90
52979;DHT22;63430;53.186;6.598;2023-02-01T01:23:18;6.50;99.90
52979;DHT22;63430;53.186;6.598;2023-02-01T01:25:21;7.00;99.90
52979;DHT22;63430;53.186;6.598;2023-02-01T01:27:23;6.50;99.90
52979;DHT22;63430;53.186;6.598;2023-02-01T01:29:27;7.10;99.90
52979;DHT22;63430;53.186;6.598;2023-02-01T01:31:34;6.50;99.90
52979;DHT22;63430;53.186;6.598;2023-02-01T01:33:37;7.30;99.90
52979;DHT22;63430;53.186;6.598;2023-02-01T01:35:41;6.70;99.90
52979;DHT22;63430;53.186;6.598;2023-02-01T01:37:44;6.60;99.90
52979;DHT22;63430;53.186;6.598;2023-02-01T01:39:50;6.60;99.90
52979;DHT22;63430;53.186;6.598;2023-02-01T01:41:52;6.60;99.90
52979;DHT22;63430;53.186;6.598;2023-02-01T01:44:01;6.60;99.90
52979;DHT22;63430;53.186;6.598;2023-02-01T01:46:04;6.80;99.90
52979;DHT22;63430;53.186;6.598;2023-02-01T01:48:16;6.60;99.90
52979;DHT22;63430;53.186;6.598;2023-02-01T01:50:24;6.50;99.90
52979;DHT22;63430;53.186;6.598;2023-02-01T01:52:26;6.60;99.90
52979;DHT22;63430;53.186;6.598;2023-02-01T01:54:32;6.50;99.90
52979;DHT22;63430;53.186;6.598;2023-02-01T01:56:39;6.60;99.90
52979;DHT22;63430;53.186;6.598;2023-02-01T01:58:44;6.60;99.90
52979;DHT22;63430;53.186;6.598;2023-02-01T02:00:47;6.50;99.90
52979;DHT22;63430;53.186;6.598;2023-02-01T02:02:54;6.50;99.90
52979;DHT22;63430;53.186;6.598;2023-02-01T02:04:59;6.50;99.90
52979;DHT22;63430;53.186;6.598;2023-02-01T02:07:04;6.40;99.90
52979;DHT22;63430;53.186;6.598;2023-02-01T02:09:07;6.40;99.90
52979;DHT22;63430;53.186;6.598;2023-02-01T02:11:12;6.40;99.90
52979;DHT22;63430;53.186;6.598;2023-02-01T02:13:32;6.40;99.90
52979;DHT22;63430;53.186;6.598;2023-02-01T02:15:40;7.00;99.90
52979;DHT22;63430;53.186;6.598;2023-02-01T02:17:52;6.30;99.90
52979;DHT22;63430;53.186;6.598;2023-02-01T02:23:20;6.30;99.90
52979;DHT22;63430;53.186;6.598;2023-02-01T02:29:00;6.20;99.90
52979;DHT22;63430;53.186;6.598;2023-02-01T02:31:28;6.20;99.90
52979;DHT22;63430;53.186;6.598;2023-02-01T02:33:50;6.20;99.90
52979;DHT22;63430;53.186;6.598;2023-02-01T02:35:57;6.20;99.90
52979;DHT22;63430;53.186;6.598;2023-02-01T02:38:09;6.10;99.90
52979;DHT22;63430;53.186;6.598;2023-02-01T02:40:25;6.10;99.90
52979;DHT22;63430;53.186;6.598;2023-02-01T02:42:38;6.00;99.90
52979;DHT22;63430;53.186;6.598;2023-02-01T02:45:04;6.00;99.90
52979;DHT22;63430;53.186;6.598;2023-02-01T02:47:36;6.10;99.90
52979;DHT22;63430;53.186;6.598;2023-02-01T02:49:52;6.10;99.90
52979;DHT22;63430;53.186;6.598;2023-02-01T02:52:18;6.10;99.90
52979;DHT22;63430;53.186;6.598;2023-02-01T02:54:43;6.20;99.90
52979;DHT22;63430;53.186;6.598;2023-02-01T02:56:57;6.10;99.90
52979;DHT22;63430;53.186;6.598;2023-02-01T02:59:26;6.10;99.90
52979;DHT22;63430;53.186;6.598;2023-02-01T03:01:49;6.10;99.90
52979;DHT22;63430;53.186;6.598;2023-02-01T03:04:12;6.10;99.90
52979;DHT22;63430;53.186;6.598;2023-02-01T03:06:25;6.20;99.90
52979;DHT22;63430;53.186;6.598;2023-02-01T03:08:30;6.20;99.90
52979;DHT22;63430;53.186;6.598;2023-02-01T03:10:42;6.20;99.90
52979;DHT22;63430;53.186;6.598;2023-02-01T03:12:50;6.20;99.90
52979;DHT22;63430;53.186;6.598;2023-02-01T03:15:05;6.30;99.90
52979;DHT22;63430;53.186;6.598;2023-02-01T03:17:13;6.30;99.90
52979;DHT22;63430;53.186;6.598;2023-02-01T03:19:20;6.40;99.90
52979;DHT22;63430;53.186;6.598;2023-02-01T03:21:31;6.20;99.90
52979;DHT22;63430;53.186;6.598;2023-02-01T03:23:36;6.40;99.90
52979;DHT22;63430;53.186;6.598;2023-02-01T03:25:41;6.40;99.90
52979;DHT22;63430;53.186;6.598;2023-02-01T03:27:50;6.40;99.90
52979;DHT22;63430;53.186;6.598;2023-02-01T03:29:59;6.40;99.90
52979;DHT22;63430;53.186;6.598;2023-02-01T03:32:03;6.40;99.90
52979;DHT22;63430;53.186;6.598;2023-02-01T03:34:07;6.40;99.90
52979;DHT22;63430;53.186;6.598;2023-02-01T03:36:20;7.00;99.90
52979;DHT22;63430;53.186;6.598;2023-02-01T03:38:32;6.40;99.90
52979;DHT22;63430;53.186;6.598;2023-02-01T03:40:53;6.40;99.90
52979;DHT22;63430;53.186;6.598;2023-02-01T03:42:59;6.40;99.90
52979;DHT22;63430;53.186;6.598;2023-02-01T03:45:07;6.50;99.90
52979;DHT22;63430;53.186;6.598;2023-02-01T03:47:15;6.50;99.90
52979;DHT22;63430;53.186;6.598;2023-02-01T03:49:26;6.50;99.90
52979;DHT22;63430;53.186;6.598;2023-02-01T03:51:31;6.50;99.90
52979;DHT22;63430;53.186;6.598;2023-02-01T03:53:37;6.50;99.90
52979;DHT22;63430;53.186;6.598;2023-02-01T03:55:42;6.50;99.90
52979;DHT22;63430;53.186;6.598;2023-02-01T03:57:51;6.50;99.90
52979;DHT22;63430;53.186;6.598;2023-02-01T04:00:04;6.50;99.90
52979;DHT22;63430;53.186;6.598;2023-02-01T04:02:15;6.40;99.90
52979;DHT22;63430;53.186;6.598;2023-02-01T04:04:18;6.70;99.90
52979;DHT22;63430;53.186;6.598;2023-02-01T04:06:28;6.40;99.90
52979;DHT22;63430;53.186;6.598;2023-02-01T04:08:44;6.40;99.90
52979;DHT22;63430;53.186;6.598;2023-02-01T04:10:46;6.40;99.90
52979;DHT22;63430;53.186;6.598;2023-02-01T04:12:49;6.30;99.90
52979;DHT22;63430;53.186;6.598;2023-02-01T04:14:51;6.40;99.90
52979;DHT22;63430;53.186;6.598;2023-02-01T04:16:54;6.30;99.90
52979;DHT22;63430;53.186;6.598;2023-02-01T04:18:56;6.30;99.90
52979;DHT22;63430;53.186;6.598;2023-02-01T04:21:00;6.40;99.90
52979;DHT22;63430;53.186;6.598;2023-02-01T04:23:03;6.40;99.90
52979;DHT22;63430;53.186;6.598;2023-02-01T04:25:09;6.40;99.90
52979;DHT22;63430;53.186;6.598;2023-02-01T04:27:11;6.40;99.90
52979;DHT22;63430;53.186;6.598;2023-02-01T04:29:14;6.40;99.90
52979;DHT22;63430;53.186;6.598;2023-02-01T04:31:18;6.40;99.90
52979;DHT22;63430;53.186;6.598;2023-02-01T04:33:28;6.50;99.90
52979;DHT22;63430;53.186;6.598;2023-02-01T04:35:30;6.50;99.90
52979;DHT22;63430;53.186;6.598;2023-02-01T04:37:38;6.50;99.90
52979;DHT22;63430;53.186;6.598;2023-02-01T04:39:40;6.50;99.90
52979;DHT22;63430;53.186;6.598;2023-02-01T04:41:45;6.50;99.90
52979;DHT22;63430;53.186;6.598;2023-02-01T04:43:49;6.50;99.90
52979;DHT22;63430;53.186;6.598;2023-02-01T04:45:53;6.50;99.90
52979;DHT22;63430;53.186;6.598;2023-02-01T04:47:57;6.50;99.90
52979;DHT22;63430;53.186;6.598;2023-02-01T04:50:00;6.60;99.90
52979;DHT22;63430;53.186;6.598;2023-02-01T04:52:03;6.50;99.90
52979;DHT22;63430;53.186;6.598;2023-02-01T04:54:06;6.60;99.90
52979;DHT22;63430;53.186;6.598;2023-02-01T04:56:08;6.90;99.90
52979;DHT22;63430;53.186;6.598;2023-02-01T04:58:14;6.60;99.90
52979;DHT22;63430;53.186;6.598;2023-02-01T05:00:17;6.60;99.90
52979;DHT22;63430;53.186;6.598;2023-02-01T05:02:20;6.60;99.90
52979;DHT22;63430;53.186;6.598;2023-02-01T05:04:22;6.60;99.90
52979;DHT22;63430;53.186;6.598;2023-02-01T05:06:25;6.50;99.90
52979;DHT22;63430;53.186;6.598;2023-02-01T05:08:28;6.50;99.90
52979;DHT22;63430;53.186;6.598;2023-02-01T05:10:31;6.50;99.90
52979;DHT22;63430;53.186;6.598;2023-02-01T05:12:34;6.50;99.90
52979;DHT22;63430;53.186;6.598;2023-02-01T05:14:57;6.60;99.90
52979;DHT22;63430;53.186;6.598;2023-02-01T05:17:00;6.50;99.90
52979;DHT22;63430;53.186;6.598;2023-02-01T05:19:05;6.50;99.90
52979;DHT22;63430;53.186;6.598;2023-02-01T05:21:07;6.50;99.90
52979;DHT22;63430;53.186;6.598;2023-02-01T05:23:16;6.50;99.90
52979;DHT22;63430;53.186;6.598;2023-02-01T05:25:19;6.60;99.90
52979;DHT22;63430;53.186;6.598;2023-02-01T05:27:21;6.50;99.90
52979;DHT22;63430;53.186;6.598;2023-02-01T05:29:31;6.40;99.90
52979;DHT22;63430;53.186;6.598;2023-02-01T05:31:44;6.50;99.90
52979;DHT22;63430;53.186;6.598;2023-02-01T05:33:47;6.40;99.90
52979;DHT22;63430;53.186;6.598;2023-02-01T05:35:50;7.40;99.90
52979;DHT22;63430;53.186;6.598;2023-02-01T05:37:52;6.50;99.90
52979;DHT22;63430;53.186;6.598;2023-02-01T05:39:55;6.50;99.90
52979;DHT22;63430;53.186;6.598;2023-02-01T05:42:01;6.60;99.90
52979;DHT22;63430;53.186;6.598;2023-02-01T05:44:04;6.60;99.90
52979;DHT22;63430;53.186;6.598;2023-02-01T05:46:09;6.60;99.90
52979;DHT22;63430;53.186;6.598;2023-02-01T05:48:18;6.60;99.90
52979;DHT22;63430;53.186;6.598;2023-02-01T05:50:20;6.70;99.90
52979;DHT22;63430;53.186;6.598;2023-02-01T05:52:31;6.60;99.90
52979;DHT22;63430;53.186;6.598;2023-02-01T05:54:34;6.80;99.90
52979;DHT22;63430;53.186;6.598;2023-02-01T05:56:36;6.70;99.90
52979;DHT22;63430;53.186;6.598;2023-02-01T05:58:40;6.70;99.90
52979;DHT22;63430;53.186;6.598;2023-02-01T06:00:43;6.70;99.90
52979;DHT22;63430;53.186;6.598;2023-02-01T06:02:45;6.70;99.90
52979;DHT22;63430;53.186;6.598;2023-02-01T06:04:52;6.70;99.90
52979;DHT22;63430;53.186;6.598;2023-02-01T06:06:55;6.70;99.90
52979;DHT22;63430;53.186;6.598;2023-02-01T06:08:58;6.70;99.90
52979;DHT22;63430;53.186;6.598;2023-02-01T06:11:03;6.70;99.90
52979;DHT22;63430;53.186;6.598;2023-02-01T06:13:10;6.60;99.90
52979;DHT22;63430;53.186;6.598;2023-02-01T06:15:13;6.60;99.90
52979;DHT22;63430;53.186;6.598;2023-02-01T06:17:17;6.60;99.90
52979;DHT22;63430;53.186;6.598;2023-02-01T06:19:20;6.50;99.90
52979;DHT22;63430;53.186;6.598;2023-02-01T06:21:39;6.50;99.90
52979;DHT22;63430;53.186;6.598;2023-02-01T06:23:41;6.50;99.90
52979;DHT22;63430;53.186;6.598;2023-02-01T06:25:44;6.50;99.90
52979;DHT22;63430;53.186;6.598;2023-02-01T06:27:47;6.50;99.90
52979;DHT22;63430;53.186;6.598;2023-02-01T06:29:50;6.50;99.90
52979;DHT22;63430;53.186;6.598;2023-02-01T06:31:54;6.50;99.90
52979;DHT22;63430;53.186;6.598;2023-02-01T06:33:57;7.30;99.90
52979;DHT22;63430;53.186;6.598;2023-02-01T06:36:07;6.50;99.90
52979;DHT22;63430;53.186;6.598;2023-02-01T06:38:23;6.50;99.90
52979;DHT22;63430;53.186;6.598;2023-02-01T06:40:25;6.40;99.90
52979;DHT22;63430;53.186;6.598;2023-02-01T06:42:28;6.50;99.90
52979;DHT22;63430;53.186;6.598;2023-02-01T06:44:31;6.50;99.90
52979;DHT22;63430;53.186;6.598;2023-02-01T06:46:33;6.50;99.90
52979;DHT22;63430;53.186;6.598;2023-02-01T06:48:40;6.50;99.90
52979;DHT22;63430;53.186;6.598;2023-02-01T06:50:42;6.50;99.90
52979;DHT22;63430;53.186;6.598;2023-02-01T06:52:45;6.60;99.90
52979;DHT22;63430;53.186;6.598;2023-02-01T06:54:50;6.60;99.90
52979;DHT22;63430;53.186;6.598;2023-02-01T06:56:53;6.70;99.90
52979;DHT22;63430;53.186;6.598;2023-02-01T06:58:55;6.60;99.90
52979;DHT22;63430;53.186;6.598;2023-02-01T07:01:03;6.70;99.90
52979;DHT22;63430;53.186;6.598;2023-02-01T07:03:06;6.60;99.90
52979;DHT22;63430;53.186;6.598;2023-02-01T07:05:09;6.60;99.90
52979;DHT22;63430;53.186;6.598;2023-02-01T07:07:11;6.70;99.90
52979;DHT22;63430;53.186;6.598;2023-02-01T07:09:15;6.70;99.90
52979;DHT22;63430;53.186;6.598;2023-02-01T07:11:21;6.70;99.90
52979;DHT22;63430;53.186;6.598;2023-02-01T07:13:44;6.70;99.90
52979;DHT22;63430;53.186;6.598;2023-02-01T07:16:10;6.70;99.90
52979;DHT22;63430;53.186;6.598;2023-02-01T07:18:36;6.70;99.90
52979;DHT22;63430;53.186;6.598;2023-02-01T07:20:38;6.70;99.90
52979;DHT22;63430;53.186;6.598;2023-02-01T07:22:44;7.20;99.90
52979;DHT22;63430;53.186;6.598;2023-02-01T07:24:47;6.60;99.90
52979;DHT22;63430;53.186;6.598;2023-02-01T07:26:52;6.70;99.90
52979;DHT22;63430;53.186;6.598;2023-02-01T07:28:55;7.10;99.90
52979;DHT22;63430;53.186;6.598;2023-02-01T07:31:02;6.70;99.90
52979;DHT22;63430;53.186;6.598;2023-02-01T07:33:04;6.70;99.90
52979;DHT22;63430;53.186;6.598;2023-02-01T07:35:08;6.70;99.90
52979;DHT22;63430;53.186;6.598;2023-02-01T07:37:11;7.00;99.90
52979;DHT22;63430;53.186;6.598;2023-02-01T07:39:13;6.70;99.90
52979;DHT22;63430;53.186;6.598;2023-02-01T07:41:16;6.70;99.90
52979;DHT22;63430;53.186;6.598;2023-02-01T07:43:22;6.70;99.90
52979;DHT22;63430;53.186;6.598;2023-02-01T07:45:25;6.70;99.90
52979;DHT22;63430;53.186;6.598;2023-02-01T07:47:27;6.70;99.90
52979;DHT22;63430;53.186;6.598;2023-02-01T07:49:30;6.70;99.90
52979;DHT22;63430;53.186;6.598;2023-02-01T07:51:33;6.70;99.90
52979;DHT22;63430;53.186;6.598;2023-02-01T07:53:35;6.70;99.90
52979;DHT22;63430;53.186;6.598;2023-02-01T07:55:38;6.70;99.90
52979;DHT22;63430;53.186;6.598;2023-02-01T07:57:40;6.60;99.90
52979;DHT22;63430;53.186;6.598;2023-02-01T07:59:46;6.70;99.90
52979;DHT22;63430;53.186;6.598;2023-02-01T08:02:20;6.70;99.90
52979;DHT22;63430;53.186;6.598;2023-02-01T08:04:23;6.70;99.90
52979;DHT22;63430;53.186;6.598;2023-02-01T08:06:26;6.70;99.90
52979;DHT22;63430;53.186;6.598;2023-02-01T08:08:29;6.80;99.90
52979;DHT22;63430;53.186;6.598;2023-02-01T08:10:32;6.70;99.90
52979;DHT22;63430;53.186;6.598;2023-02-01T08:12:35;6.70;99.90
52979;DHT22;63430;53.186;6.598;2023-02-01T08:14:38;6.80;99.90
52979;DHT22;63430;53.186;6.598;2023-02-01T08:16:45;6.70;99.90
52979;DHT22;63430;53.186;6.598;2023-02-01T08:18:48;6.80;99.90
52979;DHT22;63430;53.186;6.598;2023-02-01T08:20:50;6.80;99.90
52979;DHT22;63430;53.186;6.598;2023-02-01T08:22:53;6.80;99.90
52979;DHT22;63430;53.186;6.598;2023-02-01T08:24:55;6.80;99.90
52979;DHT22;63430;53.186;6.598;2023-02-01T08:27:03;6.70;99.90
52979;DHT22;63430;53.186;6.598;2023-02-01T08:29:06;6.80;99.90
52979;DHT22;63430;53.186;6.598;2023-02-01T08:31:11;6.80;99.90
52979;DHT22;63430;53.186;6.598;2023-02-01T08:33:16;6.80;99.90
52979;DHT22;63430;53.186;6.598;2023-02-01T08:35:19;6.70;99.90
52979;DHT22;63430;53.186;6.598;2023-02-01T08:37:24;6.80;99.90
52979;DHT22;63430;53.186;6.598;2023-02-01T08:39:27;6.80;99.90
52979;DHT22;63430;53.186;6.598;2023-02-01T08:41:30;6.80;99.90
52979;DHT22;63430;53.186;6.598;2023-02-01T08:43:32;6.80;99.90
52979;DHT22;63430;53.186;6.598;2023-02-01T08:45:54;6.80;99.90
52979;DHT22;63430;53.186;6.598;2023-02-01T08:47:58;6.80;99.90
52979;DHT22;63430;53.186;6.598;2023-02-01T08:50:06;7.10;99.90
52979;DHT22;63430;53.186;6.598;2023-02-01T08:52:10;6.80;99.90
52979;DHT22;63430;53.186;6.598;2023-02-01T08:54:17;6.80;99.90
52979;DHT22;63430;53.186;6.598;2023-02-01T08:56:20;6.80;99.90
52979;DHT22;63430;53.186;6.598;2023-02-01T08:58:24;6.80;99.90
52979;DHT22;63430;53.186;6.598;2023-02-01T09:00:27;6.80;99.90
52979;DHT22;63430;53.186;6.598;2023-02-01T09:02:50;6.80;99.90
52979;DHT22;63430;53.186;6.598;2023-02-01T09:04:52;6.80;99.90
52979;DHT22;63430;53.186;6.598;2023-02-01T09:06:58;6.80;99.90
52979;DHT22;63430;53.186;6.598;2023-02-01T09:09:00;6.80;99.90
52979;DHT22;63430;53.186;6.598;2023-02-01T09:11:11;6.80;99.90
52979;DHT22;63430;53.186;6.598;2023-02-01T09:13:14;6.80;99.90
52979;DHT22;63430;53.186;6.598;2023-02-01T09:15:16;6.80;99.90
52979;DHT22;63430;53.186;6.598;2023-02-01T09:17:19;6.80;99.90
52979;DHT22;63430;53.186;6.598;2023-02-01T09:19:21;7.40;99.90
52979;DHT22;63430;53.186;6.598;2023-02-01T09:21:28;6.80;99.90
52979;DHT22;63430;53.186;6.598;2023-02-01T09:23:33;6.80;99.90
52979;DHT22;63430;53.186;6.598;2023-02-01T09:25:37;6.80;99.90
52979;DHT22;63430;53.186;6.598;2023-02-01T09:27:40;6.80;99.90
52979;DHT22;63430;53.186;6.598;2023-02-01T09:29:42;6.80;99.90
52979;DHT22;63430;53.186;6.598;2023-02-01T09:31:45;6.80;99.90
52979;DHT22;63430;53.186;6.598;2023-02-01T09:34:03;6.80;99.90
52979;DHT22;63430;53.186;6.598;2023-02-01T09:36:07;6.90;99.90
52979;DHT22;63430;53.186;6.598;2023-02-01T09:38:09;6.90;99.90
52979;DHT22;63430;53.186;6.598;2023-02-01T09:40:16;6.80;99.90
52979;DHT22;63430;53.186;6.598;2023-02-01T09:42:44;6.90;99.90
52979;DHT22;63430;53.186;6.598;2023-02-01T09:44:59;6.80;99.90
52979;DHT22;63430;53.186;6.598;2023-02-01T09:47:03;6.90;99.90
52979;DHT22;63430;53.186;6.598;2023-02-01T09:49:10;6.80;99.90
52979;DHT22;63430;53.186;6.598;2023-02-01T09:51:16;6.80;99.90
52979;DHT22;63430;53.186;6.598;2023-02-01T09:53:25;7.00;99.90
52979;DHT22;63430;53.186;6.598;2023-02-01T09:55:35;6.80;99.90
52979;DHT22;63430;53.186;6.598;2023-02-01T09:57:48;6.80;99.90
52979;DHT22;63430;53.186;6.598;2023-02-01T09:59:56;6.80;99.90
52979;DHT22;63430;53.186;6.598;2023-02-01T10:02:02;6.80;99.90
52979;DHT22;63430;53.186;6.598;2023-02-01T10:04:08;6.80;99.90
52979;DHT22;63430;53.186;6.598;2023-02-01T10:06:23;6.70;99.90
52979;DHT22;63430;53.186;6.598;2023-02-01T10:08:33;6.70;99.90
52979;DHT22;63430;53.186;6.598;2023-02-01T10:10:45;6.70;99.90
52979;DHT22;63430;53.186;6.598;2023-02-01T10:13:09;6.70;99.90
52979;DHT22;63430;53.186;6.598;2023-02-01T10:15:27;6.60;99.90
52979;DHT22;63430;53.186;6.598;2023-02-01T10:17:45;6.60;99.90
52979;DHT22;63430;53.186;6.598;2023-02-01T10:19:55;6.60;99.90
52979;DHT22;63430;53.186;6.598;2023-02-01T10:22:02;6.80;99.90
52979;DHT22;63430;53.186;6.598;2023-02-01T10:24:16;6.50;99.90
52979;DHT22;63430;53.186;6.598;2023-02-01T10:26:23;6.50;99.90
52979;DHT22;63430;53.186;6.598;2023-02-01T10:28:26;6.50;99.90
52979;DHT22;63430;53.186;6.598;2023-02-01T10:30:34;6.60;99.90
52979;DHT22;63430;53.186;6.598;2023-02-01T10:32:40;6.60;99.90
52979;DHT22;63430;53.186;6.598;2023-02-01T10:34:46;6.60;99.90
52979;DHT22;63430;53.186;6.598;2023-02-01T10:36:54;6.70;99.90
52979;DHT22;63430;53.186;6.598;2023-02-01T10:38:58;6.70;99.90
52979;DHT22;63430;53.186;6.598;2023-02-01T10:41:03;6.70;99.90
52979;DHT22;63430;53.186;6.598;2023-02-01T10:43:13;6.70;99.90
52979;DHT22;63430;53.186;6.598;2023-02-01T10:45:17;6.70;99.90
52979;DHT22;63430;53.186;6.598;2023-02-01T10:47:20;6.80;99.90
52979;DHT22;63430;53.186;6.598;2023-02-01T10:49:28;6.90;99.90
52979;DHT22;63430;53.186;6.598;2023-02-01T10:51:41;7.00;99.90
52979;DHT22;63430;53.186;6.598;2023-02-01T10:53:49;7.10;99.90
52979;DHT22;63430;53.186;6.598;2023-02-01T10:55:54;7.00;99.90
52979;DHT22;63430;53.186;6.598;2023-02-01T10:57:57;7.10;99.90
52979;DHT22;63430;53.186;6.598;2023-02-01T11:00:18;7.10;99.90
52979;DHT22;63430;53.186;6.598;2023-02-01T11:02:25;7.20;99.90
52979;DHT22;63430;53.186;6.598;2023-02-01T11:04:33;7.20;99.90
52979;DHT22;63430;53.186;6.598;2023-02-01T11:06:39;7.20;99.90
52979;DHT22;63430;53.186;6.598;2023-02-01T11:08:43;7.10;99.90
52979;DHT22;63430;53.186;6.598;2023-02-01T11:10:49;7.00;99.90
52979;DHT22;63430;53.186;6.598;2023-02-01T11:13:02;7.00;99.90
52979;DHT22;63430;53.186;6.598;2023-02-01T11:15:20;6.90;99.90
52979;DHT22;63430;53.186;6.598;2023-02-01T11:17:27;6.80;99.90
52979;DHT22;63430;53.186;6.598;2023-02-01T11:19:31;6.80;99.90
52979;DHT22;63430;53.186;6.598;2023-02-01T11:21:34;6.80;99.90
52979;DHT22;63430;53.186;6.598;2023-02-01T11:23:43;6.80;99.90
52979;DHT22;63430;53.186;6.598;2023-02-01T11:25:51;6.90;99.90
52979;DHT22;63430;53.186;6.598;2023-02-01T11:27:55;6.80;99.90
52979;DHT22;63430;53.186;6.598;2023-02-01T11:29:59;7.20;99.90
52979;DHT22;63430;53.186;6.598;2023-02-01T11:32:08;6.70;99.90
52979;DHT22;63430;53.186;6.598;2023-02-01T11:34:15;6.70;99.90
52979;DHT22;63430;53.186;6.598;2023-02-01T11:36:20;6.70;99.90
52979;DHT22;63430;53.186;6.598;2023-02-01T11:38:27;6.70;99.90
52979;DHT22;63430;53.186;6.598;2023-02-01T11:40:37;6.80;99.90
52979;DHT22;63430;53.186;6.598;2023-02-01T11:42:53;6.80;99.90
52979;DHT22;63430;53.186;6.598;2023-02-01T11:45:17;6.90;99.90
52979;DHT22;63430;53.186;6.598;2023-02-01T11:47:24;7.00;99.90
52979;DHT22;63430;53.186;6.598;2023-02-01T11:49:27;7.00;99.90
52979;DHT22;63430;53.186;6.598;2023-02-01T11:51:41;7.10;99.90
52979;DHT22;63430;53.186;6.598;2023-02-01T11:53:52;7.10;99.90
52979;DHT22;63430;53.186;6.598;2023-02-01T11:56:11;7.10;99.90
52979;DHT22;63430;53.186;6.598;2023-02-01T11:58:30;7.20;99.90
52979;DHT22;63430;53.186;6.598;2023-02-01T12:00:47;7.30;99.90
52979;DHT22;63430;53.186;6.598;2023-02-01T12:03:24;7.30;99.90
52979;DHT22;63430;53.186;6.598;2023-02-01T12:05:37;7.30;99.90
52979;DHT22;63430;53.186;6.598;2023-02-01T12:10:20;7.30;99.90
52979;DHT22;63430;53.186;6.598;2023-02-01T12:12:31;7.40;99.90
52979;DHT22;63430;53.186;6.598;2023-02-01T12:17:44;7.40;99.90
52979;DHT22;63430;53.186;6.598;2023-02-01T12:20:07;7.50;99.90
52979;DHT22;63430;53.186;6.598;2023-02-01T12:22:24;7.70;99.90
52979;DHT22;63430;53.186;6.598;2023-02-01T12:24:43;7.70;99.90
52979;DHT22;63430;53.186;6.598;2023-02-01T12:26:54;7.70;99.90
52979;DHT22;63430;53.186;6.598;2023-02-01T12:29:12;7.80;99.90
52979;DHT22;63430;53.186;6.598;2023-02-01T12:31:36;7.90;99.90
52979;DHT22;63430;53.186;6.598;2023-02-01T12:33:53;7.90;99.90
52979;DHT22;63430;53.186;6.598;2023-02-01T12:36:15;8.00;99.90
52979;DHT22;63430;53.186;6.598;2023-02-01T12:38:32;8.20;99.90
52979;DHT22;63430;53.186;6.598;2023-02-01T12:40:47;8.30;99.90
52979;DHT22;63430;53.186;6.598;2023-02-01T12:42:56;8.40;99.90
52979;DHT22;63430;53.186;6.598;2023-02-01T12:45:03;8.50;99.90
52979;DHT22;63430;53.186;6.598;2023-02-01T12:47:14;8.40;99.90
52979;DHT22;63430;53.186;6.598;2023-02-01T12:49:22;8.30;99.90
52979;DHT22;63430;53.186;6.598;2023-02-01T12:51:34;8.30;99.90
52979;DHT22;63430;53.186;6.598;2023-02-01T12:53:48;8.20;99.90
52979;DHT22;63430;53.186;6.598;2023-02-01T12:55:54;8.10;99.90
52979;DHT22;63430;53.186;6.598;2023-02-01T12:58:04;8.00;99.90
52979;DHT22;63430;53.186;6.598;2023-02-01T13:00:19;8.00;99.90
52979;DHT22;63430;53.186;6.598;2023-02-01T13:02:28;8.00;99.90
52979;DHT22;63430;53.186;6.598;2023-02-01T13:04:39;8.10;99.90
52979;DHT22;63430;53.186;6.598;2023-02-01T13:06:49;8.00;99.90
52979;DHT22;63430;53.186;6.598;2023-02-01T13:09:00;8.10;99.90
52979;DHT22;63430;53.186;6.598;2023-02-01T13:11:10;8.10;99.90
52979;DHT22;63430;53.186;6.598;2023-02-01T13:13:20;8.10;99.90
52979;DHT22;63430;53.186;6.598;2023-02-01T13:15:28;8.10;99.90
52979;DHT22;63430;53.186;6.598;2023-02-01T13:17:33;8.20;99.90
52979;DHT22;63430;53.186;6.598;2023-02-01T13:19:39;8.20;99.90
52979;DHT22;63430;53.186;6.598;2023-02-01T13:21:50;8.10;99.90
52979;DHT22;63430;53.186;6.598;2023-02-01T13:23:53;8.10;99.90
52979;DHT22;63430;53.186;6.598;2023-02-01T13:25:56;8.10;99.90
52979;DHT22;63430;53.186;6.598;2023-02-01T13:28:04;8.10;99.90
52979;DHT22;63430;53.186;6.598;2023-02-01T13:30:12;8.20;99.90
52979;DHT22;63430;53.186;6.598;2023-02-01T13:32:46;8.20;99.90
52979;DHT22;63430;53.186;6.598;2023-02-01T13:35:31;8.20;99.90
52979;DHT22;63430;53.186;6.598;2023-02-01T13:40:23;8.30;99.90
52979;DHT22;63430;53.186;6.598;2023-02-01T13:42:30;8.30;99.90
52979;DHT22;63430;53.186;6.598;2023-02-01T13:44:38;8.30;99.90
52979;DHT22;63430;53.186;6.598;2023-02-01T13:46:43;8.20;99.90
52979;DHT22;63430;53.186;6.598;2023-02-01T13:48:48;8.20;99.90
52979;DHT22;63430;53.186;6.598;2023-02-01T13:50:54;8.20;99.90
52979;DHT22;63430;53.186;6.598;2023-02-01T13:53:02;8.20;99.90